Terminal Aerodrome Forecast
Issued by NWS

Home | Current Version | Previous Version | Text Only | Print | Product List | Glossary On
Versions: 1 2 3 4 5 6 7 8 9 10 11 12 13 14 15
000
FTUS43 KSGF 262300
TAFJLN
TAF
KJLN 262320Z 2700/2724 06013KT P6SM SCT025 BKN250
     FM270300 06009KT P6SM SCT035 BKN250
     FM270900 06007KT P6SM SCT120 BKN250
     FM271500 07014G20KT P6SM SCT050 BKN120=

USA.gov is the U.S. government's official web portal to all federal, state and local government web resources and services.